Du har inga inställningar för hoppväder.nu

Hoppväder.nu

Senast uppdaterat 02:17

UTC-tid

2018-01-17 kl. 01:17


Sol och måne

Solen går upp 8:35 och går ner 15:34 (beräknade cirkatider)
Nästa fullmåne blir om 14 dagar (2018-01-31)

METAR

ESOW (Västerås)
(27 minuter sedan)
ESOW 170050Z AUTO 12015KT 5000 SG FEW006/// SCT008/// BKN010/// 00/M01 Q0986=



ESSA (Arlanda)
(27 minuter sedan)
ESSA 170050Z 13014KT 3300 -SN BKN008 OVC010 M02/M03 Q0988 RWY 01L WET SNOW 11-25 PCT 2 MM FCT 0.67 RWY 01R WET SNOW 11-25 PCT 2 MM FCT 0.52 RWY 08 WET SNOW 11-25 PCT 2 MM FCT 0.55 TEMPO 5000=



ESKN (Skavsta)
(27 minuter sedan)
ESKN 170050Z 13009KT 7000 -RA OVC005 01/00 Q0985 RWY 26 SLUSH 11-25 PCT 1 MM BA GOOD=



ESOE (Örebro)
(27 minuter sedan)
ESOE 170050Z AUTO 08006KT 1200 R01/P2000N R19/P2000N BR VV002 01/01 Q0984=



ESSD (Borlänge)
(27 minuter sedan)
ESSD 170050Z AUTO 12010KT 4500 BR OVC005/// M01/M01 Q0985=



TAF

ESOW (Västerås)
(317 minuter sedan)
ESOW 162000Z NIL=



ESSA (Arlanda)
(107 minuter sedan)
ESSA 162330Z 1700/1724 13013KT 2000 SN VV008 TEMPO 1700/1715 5000 -SN BKN015 BECMG 1715/1717 9999 NSW BKN015 PROB40 1717/1724 BKN012=



ESKN (Skavsta)
(107 minuter sedan)
ESKN 162330Z 1700/1724 14009KT 7000 -SNRA OVC007 TEMPO 1700/1706 2500 SNRA BKN004 TEMPO 1706/1724 2500 SNRA OVC012=



ESOE (Örebro)
(52 minuter sedan)
ESOE AAB 170025Z 1700/1701 10005KT 9999 SCT003 BKN015 PROB40 1700/1701 2500 BR BKN003=



ESSD (Borlänge)
(317 minuter sedan)
ESSD 162000Z NIL=





Kodnycklar till TAF och METAR






LHP

(Västerås är område G2b i Södra delen)

Prognos är inte uppdaterad




Spotting

Hur fungerar spotthjälpen och Vindkartan?

Markvind är ca 0 m/s.



Vindkartan

Senast uppdaterad 02:17



All data kommer från LFV.se